sensor_id;sensor_type;location;lat;lon;timestamp;P1;durP1;ratioP1;P2;durP2;ratioP2
9689;SDS011;4884;42.614;23.340;2024-02-28T00:00:36;10.53;;;6.90;;
9689;SDS011;4884;42.614;23.340;2024-02-28T00:03:01;8.87;;;6.93;;
9689;SDS011;4884;42.614;23.340;2024-02-28T00:05:27;11.80;;;7.70;;
9689;SDS011;4884;42.614;23.340;2024-02-28T00:07:52;9.57;;;6.03;;
9689;SDS011;4884;42.614;23.340;2024-02-28T00:10:18;7.37;;;6.23;;
9689;SDS011;4884;42.614;23.340;2024-02-28T00:12:43;8.27;;;6.40;;
9689;SDS011;4884;42.614;23.340;2024-02-28T00:15:08;8.17;;;5.93;;
9689;SDS011;4884;42.614;23.340;2024-02-28T00:17:39;10.97;;;6.43;;
9689;SDS011;4884;42.614;23.340;2024-02-28T00:20:07;8.77;;;6.03;;
9689;SDS011;4884;42.614;23.340;2024-02-28T00:22:35;11.10;;;7.10;;
9689;SDS011;4884;42.614;23.340;2024-02-28T00:25:01;9.77;;;6.57;;
9689;SDS011;4884;42.614;23.340;2024-02-28T00:27:27;10.07;;;7.20;;
9689;SDS011;4884;42.614;23.340;2024-02-28T00:29:53;9.73;;;7.10;;
9689;SDS011;4884;42.614;23.340;2024-02-28T00:32:18;9.33;;;6.37;;
9689;SDS011;4884;42.614;23.340;2024-02-28T00:34:43;10.57;;;6.37;;
9689;SDS011;4884;42.614;23.340;2024-02-28T00:37:09;9.60;;;6.37;;
9689;SDS011;4884;42.614;23.340;2024-02-28T00:39:34;7.70;;;6.33;;
9689;SDS011;4884;42.614;23.340;2024-02-28T00:41:59;10.43;;;7.37;;
9689;SDS011;4884;42.614;23.340;2024-02-28T00:44:25;11.03;;;6.50;;
9689;SDS011;4884;42.614;23.340;2024-02-28T00:46:50;8.90;;;6.80;;
9689;SDS011;4884;42.614;23.340;2024-02-28T00:49:15;12.40;;;6.27;;
9689;SDS011;4884;42.614;23.340;2024-02-28T00:51:41;10.23;;;6.43;;
9689;SDS011;4884;42.614;23.340;2024-02-28T00:54:06;7.03;;;5.67;;
9689;SDS011;4884;42.614;23.340;2024-02-28T00:56:33;8.87;;;6.20;;
9689;SDS011;4884;42.614;23.340;2024-02-28T00:58:58;10.00;;;6.30;;
9689;SDS011;4884;42.614;23.340;2024-02-28T01:01:24;10.37;;;7.60;;
9689;SDS011;4884;42.614;23.340;2024-02-28T01:03:49;8.37;;;7.07;;
9689;SDS011;4884;42.614;23.340;2024-02-28T01:06:15;10.23;;;6.67;;
9689;SDS011;4884;42.614;23.340;2024-02-28T01:08:41;9.63;;;6.87;;
9689;SDS011;4884;42.614;23.340;2024-02-28T01:11:07;10.23;;;7.07;;
9689;SDS011;4884;42.614;23.340;2024-02-28T01:13:32;10.77;;;6.70;;
9689;SDS011;4884;42.614;23.340;2024-02-28T01:15:57;9.33;;;6.13;;
9689;SDS011;4884;42.614;23.340;2024-02-28T01:18:24;12.27;;;7.00;;
9689;SDS011;4884;42.614;23.340;2024-02-28T01:20:50;10.23;;;6.30;;
9689;SDS011;4884;42.614;23.340;2024-02-28T01:23:17;11.07;;;7.30;;
9689;SDS011;4884;42.614;23.340;2024-02-28T01:25:42;9.50;;;6.80;;
9689;SDS011;4884;42.614;23.340;2024-02-28T01:28:08;12.40;;;7.03;;
9689;SDS011;4884;42.614;23.340;2024-02-28T01:30:33;8.60;;;6.77;;
9689;SDS011;4884;42.614;23.340;2024-02-28T01:32:58;12.03;;;7.83;;
9689;SDS011;4884;42.614;23.340;2024-02-28T01:35:24;13.53;;;7.67;;
9689;SDS011;4884;42.614;23.340;2024-02-28T01:37:49;10.50;;;6.97;;
9689;SDS011;4884;42.614;23.340;2024-02-28T01:40:15;9.53;;;6.60;;
9689;SDS011;4884;42.614;23.340;2024-02-28T01:42:40;10.70;;;7.27;;
9689;SDS011;4884;42.614;23.340;2024-02-28T01:45:05;16.70;;;9.80;;
9689;SDS011;4884;42.614;23.340;2024-02-28T01:47:34;13.03;;;9.47;;
9689;SDS011;4884;42.614;23.340;2024-02-28T01:49:59;17.23;;;10.50;;
9689;SDS011;4884;42.614;23.340;2024-02-28T01:52:25;14.93;;;10.40;;
9689;SDS011;4884;42.614;23.340;2024-02-28T01:54:50;18.33;;;10.27;;
9689;SDS011;4884;42.614;23.340;2024-02-28T01:57:16;15.43;;;10.43;;
9689;SDS011;4884;42.614;23.340;2024-02-28T01:59:41;13.33;;;8.07;;
9689;SDS011;4884;42.614;23.340;2024-02-28T02:02:07;11.73;;;7.70;;
9689;SDS011;4884;42.614;23.340;2024-02-28T02:04:33;13.07;;;8.93;;
9689;SDS011;4884;42.614;23.340;2024-02-28T02:06:58;14.33;;;9.40;;
9689;SDS011;4884;42.614;23.340;2024-02-28T02:09:25;24.83;;;16.40;;
9689;SDS011;4884;42.614;23.340;2024-02-28T02:11:51;21.63;;;16.20;;
9689;SDS011;4884;42.614;23.340;2024-02-28T02:14:16;17.07;;;14.73;;
9689;SDS011;4884;42.614;23.340;2024-02-28T02:16:41;10.53;;;8.43;;
9689;SDS011;4884;42.614;23.340;2024-02-28T02:19:08;11.63;;;8.87;;
9689;SDS011;4884;42.614;23.340;2024-02-28T02:21:36;16.70;;;11.30;;
9689;SDS011;4884;42.614;23.340;2024-02-28T02:24:06;12.00;;;9.63;;
9689;SDS011;4884;42.614;23.340;2024-02-28T02:26:31;17.03;;;10.27;;
9689;SDS011;4884;42.614;23.340;2024-02-28T02:28:56;13.30;;;9.77;;
9689;SDS011;4884;42.614;23.340;2024-02-28T02:31:22;8.97;;;7.77;;
9689;SDS011;4884;42.614;23.340;2024-02-28T02:33:48;11.13;;;6.70;;
9689;SDS011;4884;42.614;23.340;2024-02-28T02:36:13;11.27;;;7.73;;
9689;SDS011;4884;42.614;23.340;2024-02-28T02:38:38;14.00;;;7.57;;
9689;SDS011;4884;42.614;23.340;2024-02-28T02:41:04;13.37;;;8.17;;
9689;SDS011;4884;42.614;23.340;2024-02-28T02:43:29;14.07;;;11.27;;
9689;SDS011;4884;42.614;23.340;2024-02-28T02:45:54;12.27;;;8.50;;
9689;SDS011;4884;42.614;23.340;2024-02-28T02:48:20;14.57;;;6.67;;
9689;SDS011;4884;42.614;23.340;2024-02-28T02:50:45;11.37;;;7.70;;
9689;SDS011;4884;42.614;23.340;2024-02-28T02:53:11;13.93;;;8.10;;
9689;SDS011;4884;42.614;23.340;2024-02-28T02:55:36;13.30;;;9.67;;
9689;SDS011;4884;42.614;23.340;2024-02-28T02:58:02;9.70;;;8.17;;
9689;SDS011;4884;42.614;23.340;2024-02-28T03:00:27;14.53;;;10.63;;
9689;SDS011;4884;42.614;23.340;2024-02-28T03:02:53;21.70;;;15.40;;
9689;SDS011;4884;42.614;23.340;2024-02-28T03:05:18;25.20;;;14.90;;
9689;SDS011;4884;42.614;23.340;2024-02-28T03:07:44;39.27;;;21.10;;
9689;SDS011;4884;42.614;23.340;2024-02-28T03:10:09;29.70;;;17.20;;
9689;SDS011;4884;42.614;23.340;2024-02-28T03:12:35;32.83;;;19.70;;
9689;SDS011;4884;42.614;23.340;2024-02-28T03:15:01;50.73;;;27.40;;
9689;SDS011;4884;42.614;23.340;2024-02-28T03:17:28;47.00;;;24.83;;
9689;SDS011;4884;42.614;23.340;2024-02-28T03:19:53;37.53;;;18.53;;
9689;SDS011;4884;42.614;23.340;2024-02-28T03:22:18;18.20;;;10.33;;
9689;SDS011;4884;42.614;23.340;2024-02-28T03:24:44;30.00;;;16.30;;
9689;SDS011;4884;42.614;23.340;2024-02-28T03:27:09;29.40;;;16.40;;
9689;SDS011;4884;42.614;23.340;2024-02-28T03:29:34;20.00;;;12.07;;
9689;SDS011;4884;42.614;23.340;2024-02-28T03:32:00;23.70;;;12.90;;
9689;SDS011;4884;42.614;23.340;2024-02-28T03:34:25;19.93;;;12.30;;
9689;SDS011;4884;42.614;23.340;2024-02-28T03:36:51;18.23;;;9.80;;
9689;SDS011;4884;42.614;23.340;2024-02-28T03:39:16;22.07;;;13.20;;
9689;SDS011;4884;42.614;23.340;2024-02-28T03:41:42;19.90;;;12.27;;
9689;SDS011;4884;42.614;23.340;2024-02-28T03:44:07;18.43;;;13.00;;
9689;SDS011;4884;42.614;23.340;2024-02-28T03:46:33;23.93;;;17.27;;
9689;SDS011;4884;42.614;23.340;2024-02-28T03:48:58;42.03;;;22.73;;
9689;SDS011;4884;42.614;23.340;2024-02-28T03:51:24;29.17;;;16.60;;
9689;SDS011;4884;42.614;23.340;2024-02-28T03:53:49;29.67;;;15.93;;
9689;SDS011;4884;42.614;23.340;2024-02-28T03:59:06;24.03;;;17.27;;
9689;SDS011;4884;42.614;23.340;2024-02-28T04:01:31;23.53;;;15.27;;
9689;SDS011;4884;42.614;23.340;2024-02-28T04:03:57;19.77;;;13.53;;
9689;SDS011;4884;42.614;23.340;2024-02-28T04:06:22;19.43;;;13.07;;
9689;SDS011;4884;42.614;23.340;2024-02-28T04:08:48;18.63;;;13.73;;
9689;SDS011;4884;42.614;23.340;2024-02-28T04:11:13;18.47;;;12.23;;
9689;SDS011;4884;42.614;23.340;2024-02-28T04:13:40;17.33;;;10.57;;
9689;SDS011;4884;42.614;23.340;2024-02-28T04:16:06;20.57;;;11.60;;
9689;SDS011;4884;42.614;23.340;2024-02-28T04:18:32;18.30;;;11.73;;
9689;SDS011;4884;42.614;23.340;2024-02-28T04:20:58;18.33;;;11.77;;
9689;SDS011;4884;42.614;23.340;2024-02-28T04:23:24;15.57;;;10.03;;
9689;SDS011;4884;42.614;23.340;2024-02-28T04:25:49;14.57;;;10.63;;
9689;SDS011;4884;42.614;23.340;2024-02-28T04:28:14;14.53;;;10.70;;
9689;SDS011;4884;42.614;23.340;2024-02-28T04:30:40;15.60;;;10.37;;
9689;SDS011;4884;42.614;23.340;2024-02-28T04:33:05;12.53;;;9.43;;
9689;SDS011;4884;42.614;23.340;2024-02-28T04:35:30;13.13;;;9.43;;
9689;SDS011;4884;42.614;23.340;2024-02-28T04:37:56;11.97;;;8.53;;
9689;SDS011;4884;42.614;23.340;2024-02-28T04:40:21;14.60;;;10.30;;
9689;SDS011;4884;42.614;23.340;2024-02-28T04:42:47;23.30;;;12.57;;
9689;SDS011;4884;42.614;23.340;2024-02-28T04:45:12;15.47;;;11.20;;
9689;SDS011;4884;42.614;23.340;2024-02-28T04:47:37;19.10;;;10.90;;
9689;SDS011;4884;42.614;23.340;2024-02-28T04:50:03;14.40;;;9.40;;
9689;SDS011;4884;42.614;23.340;2024-02-28T04:52:30;17.47;;;10.17;;
9689;SDS011;4884;42.614;23.340;2024-02-28T04:54:55;15.70;;;10.43;;
9689;SDS011;4884;42.614;23.340;2024-02-28T04:57:21;19.17;;;10.97;;
9689;SDS011;4884;42.614;23.340;2024-02-28T04:59:47;15.87;;;9.03;;
9689;SDS011;4884;42.614;23.340;2024-02-28T05:02:12;13.77;;;9.00;;
9689;SDS011;4884;42.614;23.340;2024-02-28T05:04:38;15.10;;;11.00;;
9689;SDS011;4884;42.614;23.340;2024-02-28T05:07:03;12.90;;;9.97;;
9689;SDS011;4884;42.614;23.340;2024-02-28T05:09:29;12.47;;;9.90;;
9689;SDS011;4884;42.614;23.340;2024-02-28T05:11:54;14.20;;;9.97;;
9689;SDS011;4884;42.614;23.340;2024-02-28T05:14:20;11.80;;;10.10;;
9689;SDS011;4884;42.614;23.340;2024-02-28T05:16:46;15.47;;;10.57;;
9689;SDS011;4884;42.614;23.340;2024-02-28T05:19:12;16.77;;;12.20;;
9689;SDS011;4884;42.614;23.340;2024-02-28T05:21:44;15.53;;;10.73;;
9689;SDS011;4884;42.614;23.340;2024-02-28T05:24:10;24.93;;;15.53;;
9689;SDS011;4884;42.614;23.340;2024-02-28T05:26:36;17.97;;;14.73;;
9689;SDS011;4884;42.614;23.340;2024-02-28T05:29:02;20.17;;;16.03;;
9689;SDS011;4884;42.614;23.340;2024-02-28T05:31:29;20.93;;;15.63;;
9689;SDS011;4884;42.614;23.340;2024-02-28T05:33:56;21.63;;;14.93;;
9689;SDS011;4884;42.614;23.340;2024-02-28T05:36:22;18.93;;;13.27;;
9689;SDS011;4884;42.614;23.340;2024-02-28T05:38:49;19.63;;;15.07;;
9689;SDS011;4884;42.614;23.340;2024-02-28T05:41:18;22.90;;;15.80;;
9689;SDS011;4884;42.614;23.340;2024-02-28T05:43:44;38.83;;;21.13;;
9689;SDS011;4884;42.614;23.340;2024-02-28T05:46:10;27.70;;;15.13;;
9689;SDS011;4884;42.614;23.340;2024-02-28T05:48:36;21.60;;;15.37;;
9689;SDS011;4884;42.614;23.340;2024-02-28T05:51:01;17.93;;;13.33;;
9689;SDS011;4884;42.614;23.340;2024-02-28T05:53:28;18.10;;;12.63;;
9689;SDS011;4884;42.614;23.340;2024-02-28T05:55:57;22.07;;;15.27;;
9689;SDS011;4884;42.614;23.340;2024-02-28T05:58:22;30.93;;;16.70;;
9689;SDS011;4884;42.614;23.340;2024-02-28T06:00:48;23.17;;;14.40;;
9689;SDS011;4884;42.614;23.340;2024-02-28T06:03:14;27.13;;;15.73;;
9689;SDS011;4884;42.614;23.340;2024-02-28T06:05:39;27.43;;;13.13;;
9689;SDS011;4884;42.614;23.340;2024-02-28T06:08:05;23.70;;;15.53;;
9689;SDS011;4884;42.614;23.340;2024-02-28T06:10:31;22.40;;;15.10;;
9689;SDS011;4884;42.614;23.340;2024-02-28T06:12:56;27.23;;;15.90;;
9689;SDS011;4884;42.614;23.340;2024-02-28T06:15:21;23.30;;;15.17;;
9689;SDS011;4884;42.614;23.340;2024-02-28T06:17:47;21.53;;;14.20;;
9689;SDS011;4884;42.614;23.340;2024-02-28T06:20:12;20.77;;;12.77;;
9689;SDS011;4884;42.614;23.340;2024-02-28T06:22:37;18.70;;;12.67;;
9689;SDS011;4884;42.614;23.340;2024-02-28T06:25:03;18.17;;;13.93;;
9689;SDS011;4884;42.614;23.340;2024-02-28T06:27:32;18.80;;;13.43;;
9689;SDS011;4884;42.614;23.340;2024-02-28T06:29:58;20.33;;;14.03;;
9689;SDS011;4884;42.614;23.340;2024-02-28T06:32:24;16.13;;;14.07;;
9689;SDS011;4884;42.614;23.340;2024-02-28T06:34:50;18.80;;;11.80;;
9689;SDS011;4884;42.614;23.340;2024-02-28T06:37:15;21.03;;;13.07;;
9689;SDS011;4884;42.614;23.340;2024-02-28T06:39:41;19.13;;;13.40;;
9689;SDS011;4884;42.614;23.340;2024-02-28T06:42:07;18.17;;;14.03;;
9689;SDS011;4884;42.614;23.340;2024-02-28T06:44:32;16.63;;;13.60;;
9689;SDS011;4884;42.614;23.340;2024-02-28T06:46:58;21.47;;;14.33;;
9689;SDS011;4884;42.614;23.340;2024-02-28T06:49:23;20.40;;;14.90;;
9689;SDS011;4884;42.614;23.340;2024-02-28T06:51:49;18.63;;;14.87;;
9689;SDS011;4884;42.614;23.340;2024-02-28T06:54:14;22.77;;;15.23;;
9689;SDS011;4884;42.614;23.340;2024-02-28T06:56:40;22.20;;;16.17;;
9689;SDS011;4884;42.614;23.340;2024-02-28T06:59:05;19.43;;;15.97;;
9689;SDS011;4884;42.614;23.340;2024-02-28T07:01:32;20.77;;;15.70;;
9689;SDS011;4884;42.614;23.340;2024-02-28T07:03:57;19.77;;;16.23;;
9689;SDS011;4884;42.614;23.340;2024-02-28T07:06:23;19.60;;;15.07;;
9689;SDS011;4884;42.614;23.340;2024-02-28T07:08:48;20.00;;;15.33;;
9689;SDS011;4884;42.614;23.340;2024-02-28T07:11:14;19.07;;;14.30;;
9689;SDS011;4884;42.614;23.340;2024-02-28T07:13:40;20.60;;;15.57;;
9689;SDS011;4884;42.614;23.340;2024-02-28T07:16:05;18.10;;;14.40;;
9689;SDS011;4884;42.614;23.340;2024-02-28T07:18:31;16.67;;;13.93;;
9689;SDS011;4884;42.614;23.340;2024-02-28T07:20:57;20.23;;;14.10;;
9689;SDS011;4884;42.614;23.340;2024-02-28T07:23:22;19.23;;;12.83;;
9689;SDS011;4884;42.614;23.340;2024-02-28T07:25:48;19.13;;;13.43;;
9689;SDS011;4884;42.614;23.340;2024-02-28T07:28:13;18.50;;;13.73;;
9689;SDS011;4884;42.614;23.340;2024-02-28T07:30:38;17.67;;;14.37;;
9689;SDS011;4884;42.614;23.340;2024-02-28T07:33:05;17.33;;;13.93;;
9689;SDS011;4884;42.614;23.340;2024-02-28T07:35:30;15.23;;;13.23;;
9689;SDS011;4884;42.614;23.340;2024-02-28T07:37:56;13.93;;;12.53;;
9689;SDS011;4884;42.614;23.340;2024-02-28T07:40:21;17.33;;;13.87;;
9689;SDS011;4884;42.614;23.340;2024-02-28T07:42:47;15.00;;;13.40;;
9689;SDS011;4884;42.614;23.340;2024-02-28T07:45:12;16.70;;;14.90;;
9689;SDS011;4884;42.614;23.340;2024-02-28T07:47:37;17.50;;;14.80;;
9689;SDS011;4884;42.614;23.340;2024-02-28T07:50:03;18.63;;;15.47;;
9689;SDS011;4884;42.614;23.340;2024-02-28T07:52:29;20.93;;;16.33;;
9689;SDS011;4884;42.614;23.340;2024-02-28T07:54:54;19.60;;;15.70;;
9689;SDS011;4884;42.614;23.340;2024-02-28T07:57:20;20.60;;;15.65;;
9689;SDS011;4884;42.614;23.340;2024-02-28T07:59:45;20.27;;;15.02;;
9689;SDS011;4884;42.614;23.340;2024-02-28T08:02:10;17.35;;;15.55;;
9689;SDS011;4884;42.614;23.340;2024-02-28T08:04:39;18.17;;;16.23;;
9689;SDS011;4884;42.614;23.340;2024-02-28T08:07:04;18.13;;;16.17;;
9689;SDS011;4884;42.614;23.340;2024-02-28T08:09:31;16.00;;;14.30;;
9689;SDS011;4884;42.614;23.340;2024-02-28T08:11:56;18.43;;;16.43;;
9689;SDS011;4884;42.614;23.340;2024-02-28T08:14:23;18.53;;;16.40;;
9689;SDS011;4884;42.614;23.340;2024-02-28T08:16:48;18.50;;;16.42;;
9689;SDS011;4884;42.614;23.340;2024-02-28T08:19:14;18.30;;;16.40;;
9689;SDS011;4884;42.614;23.340;2024-02-28T08:21:39;18.80;;;16.05;;
9689;SDS011;4884;42.614;23.340;2024-02-28T08:24:04;17.90;;;15.52;;
9689;SDS011;4884;42.614;23.340;2024-02-28T08:26:31;22.55;;;15.60;;
9689;SDS011;4884;42.614;23.340;2024-02-28T08:28:56;17.85;;;15.30;;
9689;SDS011;4884;42.614;23.340;2024-02-28T08:31:22;22.50;;;16.33;;
9689;SDS011;4884;42.614;23.340;2024-02-28T08:33:47;18.70;;;16.63;;
9689;SDS011;4884;42.614;23.340;2024-02-28T08:36:13;17.00;;;15.02;;
9689;SDS011;4884;42.614;23.340;2024-02-28T08:38:38;17.63;;;15.65;;
9689;SDS011;4884;42.614;23.340;2024-02-28T08:41:04;19.80;;;17.60;;
9689;SDS011;4884;42.614;23.340;2024-02-28T08:43:30;21.23;;;16.63;;
9689;SDS011;4884;42.614;23.340;2024-02-28T08:45:55;19.73;;;16.17;;
9689;SDS011;4884;42.614;23.340;2024-02-28T08:48:21;18.87;;;16.77;;
9689;SDS011;4884;42.614;23.340;2024-02-28T08:50:46;25.00;;;17.67;;
9689;SDS011;4884;42.614;23.340;2024-02-28T08:53:12;21.33;;;16.97;;
9689;SDS011;4884;42.614;23.340;2024-02-28T08:55:37;19.50;;;16.17;;
9689;SDS011;4884;42.614;23.340;2024-02-28T08:58:03;19.10;;;15.70;;
9689;SDS011;4884;42.614;23.340;2024-02-28T09:00:28;20.63;;;16.90;;
9689;SDS011;4884;42.614;23.340;2024-02-28T09:02:54;20.30;;;16.40;;
9689;SDS011;4884;42.614;23.340;2024-02-28T09:05:19;21.30;;;15.30;;
9689;SDS011;4884;42.614;23.340;2024-02-28T09:07:44;19.03;;;16.10;;
9689;SDS011;4884;42.614;23.340;2024-02-28T09:10:11;19.00;;;16.27;;
9689;SDS011;4884;42.614;23.340;2024-02-28T09:12:36;16.23;;;14.53;;
9689;SDS011;4884;42.614;23.340;2024-02-28T09:15:02;22.10;;;15.70;;
9689;SDS011;4884;42.614;23.340;2024-02-28T09:17:27;17.93;;;16.03;;
9689;SDS011;4884;42.614;23.340;2024-02-28T09:19:53;24.23;;;18.93;;
9689;SDS011;4884;42.614;23.340;2024-02-28T09:22:19;26.37;;;17.17;;
9689;SDS011;4884;42.614;23.340;2024-02-28T09:24:46;21.60;;;16.83;;
9689;SDS011;4884;42.614;23.340;2024-02-28T09:27:11;20.70;;;16.77;;
9689;SDS011;4884;42.614;23.340;2024-02-28T09:29:37;19.77;;;17.17;;
9689;SDS011;4884;42.614;23.340;2024-02-28T09:32:03;20.70;;;16.77;;
9689;SDS011;4884;42.614;23.340;2024-02-28T09:34:29;21.92;;;17.15;;
9689;SDS011;4884;42.614;23.340;2024-02-28T09:36:54;27.95;;;17.88;;
9689;SDS011;4884;42.614;23.340;2024-02-28T09:39:19;19.75;;;15.20;;
9689;SDS011;4884;42.614;23.340;2024-02-28T09:41:47;21.23;;;17.17;;
9689;SDS011;4884;42.614;23.340;2024-02-28T09:44:14;19.95;;;17.85;;
9689;SDS011;4884;42.614;23.340;2024-02-28T09:46:41;22.92;;;17.67;;
9689;SDS011;4884;42.614;23.340;2024-02-28T09:49:07;21.58;;;16.42;;
9689;SDS011;4884;42.614;23.340;2024-02-28T09:51:34;20.92;;;16.20;;
9689;SDS011;4884;42.614;23.340;2024-02-28T09:54:04;18.10;;;16.20;;
9689;SDS011;4884;42.614;23.340;2024-02-28T09:56:33;18.70;;;15.15;;
9689;SDS011;4884;42.614;23.340;2024-02-28T09:58:59;18.37;;;13.73;;
9689;SDS011;4884;42.614;23.340;2024-02-28T10:01:26;17.53;;;15.40;;
9689;SDS011;4884;42.614;23.340;2024-02-28T10:03:53;23.20;;;16.60;;
9689;SDS011;4884;42.614;23.340;2024-02-28T10:06:19;20.47;;;16.10;;
9689;SDS011;4884;42.614;23.340;2024-02-28T10:08:45;18.77;;;15.53;;
9689;SDS011;4884;42.614;23.340;2024-02-28T10:11:18;19.67;;;15.23;;
9689;SDS011;4884;42.614;23.340;2024-02-28T10:13:49;25.40;;;16.47;;
9689;SDS011;4884;42.614;23.340;2024-02-28T10:16:15;24.17;;;15.40;;
9689;SDS011;4884;42.614;23.340;2024-02-28T10:18:44;22.67;;;15.10;;
9689;SDS011;4884;42.614;23.340;2024-02-28T10:21:11;18.07;;;13.80;;
9689;SDS011;4884;42.614;23.340;2024-02-28T10:23:43;19.50;;;16.20;;
9689;SDS011;4884;42.614;23.340;2024-02-28T10:26:09;19.40;;;14.37;;
9689;SDS011;4884;42.614;23.340;2024-02-28T10:28:40;18.50;;;15.90;;
9689;SDS011;4884;42.614;23.340;2024-02-28T10:31:08;22.60;;;14.50;;
9689;SDS011;4884;42.614;23.340;2024-02-28T10:33:35;21.53;;;13.87;;
9689;SDS011;4884;42.614;23.340;2024-02-28T10:36:01;17.07;;;12.63;;
9689;SDS011;4884;42.614;23.340;2024-02-28T10:38:27;18.10;;;14.30;;
9689;SDS011;4884;42.614;23.340;2024-02-28T10:40:53;17.03;;;12.80;;
9689;SDS011;4884;42.614;23.340;2024-02-28T10:43:20;15.27;;;12.53;;
9689;SDS011;4884;42.614;23.340;2024-02-28T10:45:45;15.70;;;12.17;;
9689;SDS011;4884;42.614;23.340;2024-02-28T10:48:13;12.67;;;10.13;;
9689;SDS011;4884;42.614;23.340;2024-02-28T10:50:40;12.20;;;10.90;;
9689;SDS011;4884;42.614;23.340;2024-02-28T10:53:08;13.80;;;10.60;;
9689;SDS011;4884;42.614;23.340;2024-02-28T10:55:42;13.88;;;10.40;;
9689;SDS011;4884;42.614;23.340;2024-02-28T10:58:10;11.23;;;10.13;;
9689;SDS011;4884;42.614;23.340;2024-02-28T11:00:37;12.05;;;8.90;;
9689;SDS011;4884;42.614;23.340;2024-02-28T11:03:04;12.73;;;9.40;;
9689;SDS011;4884;42.614;23.340;2024-02-28T11:05:40;9.55;;;6.80;;
9689;SDS011;4884;42.614;23.340;2024-02-28T11:08:10;13.00;;;6.35;;
9689;SDS011;4884;42.614;23.340;2024-02-28T11:10:42;13.77;;;8.27;;
9689;SDS011;4884;42.614;23.340;2024-02-28T11:13:08;9.48;;;7.18;;
9689;SDS011;4884;42.614;23.340;2024-02-28T11:15:36;9.68;;;6.78;;
9689;SDS011;4884;42.614;23.340;2024-02-28T11:18:08;9.73;;;8.43;;
9689;SDS011;4884;42.614;23.340;2024-02-28T11:20:34;12.05;;;8.05;;
9689;SDS011;4884;42.614;23.340;2024-02-28T11:23:00;11.63;;;8.23;;
9689;SDS011;4884;42.614;23.340;2024-02-28T11:25:26;13.70;;;9.27;;
9689;SDS011;4884;42.614;23.340;2024-02-28T11:27:51;9.48;;;8.68;;
9689;SDS011;4884;42.614;23.340;2024-02-28T11:30:17;9.55;;;8.38;;
9689;SDS011;4884;42.614;23.340;2024-02-28T11:32:43;9.50;;;8.40;;
9689;SDS011;4884;42.614;23.340;2024-02-28T11:35:09;10.52;;;9.02;;
9689;SDS011;4884;42.614;23.340;2024-02-28T11:37:37;10.60;;;9.52;;
9689;SDS011;4884;42.614;23.340;2024-02-28T11:40:06;10.80;;;9.55;;
9689;SDS011;4884;42.614;23.340;2024-02-28T11:42:33;14.38;;;9.88;;
9689;SDS011;4884;42.614;23.340;2024-02-28T11:44:59;16.10;;;10.07;;
9689;SDS011;4884;42.614;23.340;2024-02-28T11:47:25;11.57;;;8.95;;
9689;SDS011;4884;42.614;23.340;2024-02-28T11:49:50;15.25;;;9.73;;
9689;SDS011;4884;42.614;23.340;2024-02-28T11:52:16;11.82;;;9.48;;
9689;SDS011;4884;42.614;23.340;2024-02-28T11:54:41;12.50;;;9.35;;
9689;SDS011;4884;42.614;23.340;2024-02-28T11:57:10;11.15;;;9.30;;
9689;SDS011;4884;42.614;23.340;2024-02-28T11:59:39;12.95;;;9.15;;
9689;SDS011;4884;42.614;23.340;2024-02-28T12:02:11;12.52;;;10.57;;
9689;SDS011;4884;42.614;23.340;2024-02-28T12:04:39;11.98;;;10.30;;
9689;SDS011;4884;42.614;23.340;2024-02-28T12:07:06;11.17;;;10.00;;
9689;SDS011;4884;42.614;23.340;2024-02-28T12:09:32;13.83;;;10.23;;
9689;SDS011;4884;42.614;23.340;2024-02-28T12:12:00;12.93;;;9.93;;
9689;SDS011;4884;42.614;23.340;2024-02-28T12:14:26;15.60;;;11.10;;
9689;SDS011;4884;42.614;23.340;2024-02-28T12:16:51;10.30;;;9.10;;
9689;SDS011;4884;42.614;23.340;2024-02-28T12:19:17;10.63;;;9.53;;
9689;SDS011;4884;42.614;23.340;2024-02-28T12:21:45;11.67;;;10.47;;
9689;SDS011;4884;42.614;23.340;2024-02-28T12:24:10;12.40;;;9.53;;
9689;SDS011;4884;42.614;23.340;2024-02-28T12:26:36;13.57;;;10.60;;
9689;SDS011;4884;42.614;23.340;2024-02-28T12:29:05;11.67;;;9.63;;
9689;SDS011;4884;42.614;23.340;2024-02-28T12:31:31;10.40;;;9.03;;
9689;SDS011;4884;42.614;23.340;2024-02-28T12:33:56;12.47;;;10.13;;
9689;SDS011;4884;42.614;23.340;2024-02-28T12:36:21;11.70;;;10.20;;
9689;SDS011;4884;42.614;23.340;2024-02-28T12:38:47;11.90;;;10.20;;
9689;SDS011;4884;42.614;23.340;2024-02-28T12:41:12;12.50;;;10.77;;
9689;SDS011;4884;42.614;23.340;2024-02-28T12:43:38;16.17;;;11.37;;
9689;SDS011;4884;42.614;23.340;2024-02-28T12:46:07;23.63;;;12.47;;
9689;SDS011;4884;42.614;23.340;2024-02-28T12:48:38;14.87;;;11.63;;
9689;SDS011;4884;42.614;23.340;2024-02-28T12:51:04;12.43;;;11.13;;
9689;SDS011;4884;42.614;23.340;2024-02-28T12:53:30;11.80;;;10.50;;
9689;SDS011;4884;42.614;23.340;2024-02-28T12:55:56;13.10;;;11.43;;
9689;SDS011;4884;42.614;23.340;2024-02-28T12:58:21;16.30;;;10.43;;
9689;SDS011;4884;42.614;23.340;2024-02-28T13:00:48;14.23;;;10.83;;
9689;SDS011;4884;42.614;23.340;2024-02-28T13:03:14;13.17;;;10.30;;
9689;SDS011;4884;42.614;23.340;2024-02-28T13:05:41;12.93;;;10.93;;
9689;SDS011;4884;42.614;23.340;2024-02-28T13:08:06;12.13;;;10.83;;
9689;SDS011;4884;42.614;23.340;2024-02-28T13:10:31;14.00;;;10.93;;
9689;SDS011;4884;42.614;23.340;2024-02-28T13:12:59;14.70;;;10.87;;
9689;SDS011;4884;42.614;23.340;2024-02-28T13:15:25;15.70;;;11.17;;
9689;SDS011;4884;42.614;23.340;2024-02-28T13:17:50;11.77;;;9.97;;
9689;SDS011;4884;42.614;23.340;2024-02-28T13:20:17;18.43;;;11.83;;
9689;SDS011;4884;42.614;23.340;2024-02-28T13:22:42;14.50;;;11.47;;
9689;SDS011;4884;42.614;23.340;2024-02-28T13:25:08;15.83;;;10.97;;
9689;SDS011;4884;42.614;23.340;2024-02-28T13:27:34;14.80;;;10.23;;
9689;SDS011;4884;42.614;23.340;2024-02-28T13:30:00;14.70;;;11.03;;
9689;SDS011;4884;42.614;23.340;2024-02-28T13:32:25;13.37;;;10.60;;
9689;SDS011;4884;42.614;23.340;2024-02-28T13:34:51;14.90;;;12.27;;
9689;SDS011;4884;42.614;23.340;2024-02-28T13:37:16;14.37;;;11.37;;
9689;SDS011;4884;42.614;23.340;2024-02-28T13:39:41;16.37;;;10.70;;
9689;SDS011;4884;42.614;23.340;2024-02-28T13:42:07;14.70;;;11.87;;
9689;SDS011;4884;42.614;23.340;2024-02-28T13:44:34;17.93;;;12.20;;
9689;SDS011;4884;42.614;23.340;2024-02-28T13:47:01;19.73;;;14.77;;
9689;SDS011;4884;42.614;23.340;2024-02-28T13:49:27;14.87;;;12.00;;
9689;SDS011;4884;42.614;23.340;2024-02-28T13:51:52;17.73;;;11.87;;
9689;SDS011;4884;42.614;23.340;2024-02-28T13:54:18;15.00;;;11.20;;
9689;SDS011;4884;42.614;23.340;2024-02-28T13:56:44;11.63;;;10.20;;
9689;SDS011;4884;42.614;23.340;2024-02-28T13:59:09;17.97;;;10.27;;
9689;SDS011;4884;42.614;23.340;2024-02-28T14:01:35;16.97;;;10.83;;
9689;SDS011;4884;42.614;23.340;2024-02-28T14:04:01;16.10;;;10.00;;
9689;SDS011;4884;42.614;23.340;2024-02-28T14:06:26;12.73;;;9.80;;
9689;SDS011;4884;42.614;23.340;2024-02-28T14:08:52;15.30;;;9.07;;
9689;SDS011;4884;42.614;23.340;2024-02-28T14:11:18;12.83;;;9.90;;
9689;SDS011;4884;42.614;23.340;2024-02-28T14:13:44;12.03;;;10.73;;
9689;SDS011;4884;42.614;23.340;2024-02-28T14:16:09;24.80;;;20.87;;
9689;SDS011;4884;42.614;23.340;2024-02-28T14:18:35;24.57;;;16.83;;
9689;SDS011;4884;42.614;23.340;2024-02-28T14:21:00;16.10;;;12.60;;
9689;SDS011;4884;42.614;23.340;2024-02-28T14:23:27;20.80;;;14.33;;
9689;SDS011;4884;42.614;23.340;2024-02-28T14:25:53;19.87;;;13.27;;
9689;SDS011;4884;42.614;23.340;2024-02-28T14:28:18;17.13;;;12.43;;
9689;SDS011;4884;42.614;23.340;2024-02-28T14:30:44;18.07;;;11.77;;
9689;SDS011;4884;42.614;23.340;2024-02-28T14:33:10;14.67;;;9.97;;
9689;SDS011;4884;42.614;23.340;2024-02-28T14:35:35;17.93;;;10.83;;